sensor_id;sensor_type;location;lat;lon;timestamp;P1;durP1;ratioP1;P2;durP2;ratioP2
4595;SDS011;2310;49.978;8.742;2022-11-20T00:03:48;36.83;;;24.30;;
4595;SDS011;2310;49.978;8.742;2022-11-20T00:07:50;42.10;;;26.30;;
4595;SDS011;2310;49.978;8.742;2022-11-20T00:11:51;38.33;;;25.30;;
4595;SDS011;2310;49.978;8.742;2022-11-20T00:15:59;40.57;;;25.20;;
4595;SDS011;2310;49.978;8.742;2022-11-20T00:20:02;33.37;;;22.43;;
4595;SDS011;2310;49.978;8.742;2022-11-20T00:24:03;35.87;;;23.47;;
4595;SDS011;2310;49.978;8.742;2022-11-20T00:28:05;35.60;;;23.70;;
4595;SDS011;2310;49.978;8.742;2022-11-20T00:32:06;36.47;;;23.40;;
4595;SDS011;2310;49.978;8.742;2022-11-20T00:36:09;38.77;;;23.37;;
4595;SDS011;2310;49.978;8.742;2022-11-20T00:40:12;38.37;;;24.73;;
4595;SDS011;2310;49.978;8.742;2022-11-20T00:44:13;45.30;;;26.73;;
4595;SDS011;2310;49.978;8.742;2022-11-20T00:48:14;35.97;;;25.23;;
4595;SDS011;2310;49.978;8.742;2022-11-20T00:52:15;33.57;;;21.80;;
4595;SDS011;2310;49.978;8.742;2022-11-20T00:56:17;34.17;;;25.10;;
4595;SDS011;2310;49.978;8.742;2022-11-20T01:00:19;42.80;;;25.10;;
4595;SDS011;2310;49.978;8.742;2022-11-20T01:04:20;34.10;;;25.90;;
4595;SDS011;2310;49.978;8.742;2022-11-20T01:08:22;35.20;;;24.57;;
4595;SDS011;2310;49.978;8.742;2022-11-20T01:12:23;32.10;;;22.47;;
4595;SDS011;2310;49.978;8.742;2022-11-20T01:16:25;33.00;;;22.47;;
4595;SDS011;2310;49.978;8.742;2022-11-20T01:20:28;31.00;;;20.40;;
4595;SDS011;2310;49.978;8.742;2022-11-20T01:24:29;40.00;;;25.70;;
4595;SDS011;2310;49.978;8.742;2022-11-20T01:28:31;32.33;;;21.43;;
4595;SDS011;2310;49.978;8.742;2022-11-20T01:32:32;33.50;;;21.37;;
4595;SDS011;2310;49.978;8.742;2022-11-20T01:36:34;31.03;;;21.97;;
4595;SDS011;2310;49.978;8.742;2022-11-20T01:40:37;33.20;;;23.30;;
4595;SDS011;2310;49.978;8.742;2022-11-20T01:49:12;41.73;;;27.70;;
4595;SDS011;2310;49.978;8.742;2022-11-20T01:53:23;37.97;;;24.40;;
4595;SDS011;2310;49.978;8.742;2022-11-20T01:57:27;39.90;;;25.97;;
4595;SDS011;2310;49.978;8.742;2022-11-20T02:01:31;40.60;;;26.70;;
4595;SDS011;2310;49.978;8.742;2022-11-20T02:09:56;32.57;;;23.73;;
4595;SDS011;2310;49.978;8.742;2022-11-20T02:13:59;33.00;;;22.50;;
4595;SDS011;2310;49.978;8.742;2022-11-20T02:18:01;32.67;;;23.10;;
4595;SDS011;2310;49.978;8.742;2022-11-20T02:22:07;35.50;;;24.10;;
4595;SDS011;2310;49.978;8.742;2022-11-20T02:26:11;36.80;;;23.63;;
4595;SDS011;2310;49.978;8.742;2022-11-20T02:30:15;34.17;;;24.63;;
4595;SDS011;2310;49.978;8.742;2022-11-20T02:34:16;33.97;;;23.47;;
4595;SDS011;2310;49.978;8.742;2022-11-20T02:38:18;37.10;;;24.23;;
4595;SDS011;2310;49.978;8.742;2022-11-20T02:42:19;36.20;;;23.07;;
4595;SDS011;2310;49.978;8.742;2022-11-20T02:46:20;32.10;;;21.40;;
4595;SDS011;2310;49.978;8.742;2022-11-20T02:50:21;32.37;;;22.13;;
4595;SDS011;2310;49.978;8.742;2022-11-20T02:54:23;35.07;;;22.23;;
4595;SDS011;2310;49.978;8.742;2022-11-20T02:58:24;34.10;;;22.20;;
4595;SDS011;2310;49.978;8.742;2022-11-20T03:02:27;28.77;;;19.13;;
4595;SDS011;2310;49.978;8.742;2022-11-20T03:06:31;29.37;;;21.07;;
4595;SDS011;2310;49.978;8.742;2022-11-20T03:10:33;31.13;;;21.73;;
4595;SDS011;2310;49.978;8.742;2022-11-20T03:14:34;33.60;;;23.60;;
4595;SDS011;2310;49.978;8.742;2022-11-20T03:18:35;31.53;;;22.00;;
4595;SDS011;2310;49.978;8.742;2022-11-20T03:22:36;28.80;;;20.20;;
4595;SDS011;2310;49.978;8.742;2022-11-20T03:26:38;36.27;;;22.50;;
4595;SDS011;2310;49.978;8.742;2022-11-20T03:30:39;25.53;;;18.10;;
4595;SDS011;2310;49.978;8.742;2022-11-20T03:34:41;29.00;;;20.20;;
4595;SDS011;2310;49.978;8.742;2022-11-20T03:38:42;28.83;;;20.80;;
4595;SDS011;2310;49.978;8.742;2022-11-20T03:42:44;28.47;;;19.77;;
4595;SDS011;2310;49.978;8.742;2022-11-20T03:46:45;27.23;;;19.97;;
4595;SDS011;2310;49.978;8.742;2022-11-20T03:50:46;37.40;;;21.50;;
4595;SDS011;2310;49.978;8.742;2022-11-20T03:54:48;25.83;;;20.83;;
4595;SDS011;2310;49.978;8.742;2022-11-20T03:58:49;25.57;;;18.97;;
4595;SDS011;2310;49.978;8.742;2022-11-20T04:02:51;30.80;;;21.73;;
4595;SDS011;2310;49.978;8.742;2022-11-20T04:06:52;26.90;;;19.67;;
4595;SDS011;2310;49.978;8.742;2022-11-20T04:10:53;28.40;;;18.70;;
4595;SDS011;2310;49.978;8.742;2022-11-20T04:14:54;29.70;;;19.73;;
4595;SDS011;2310;49.978;8.742;2022-11-20T04:18:56;28.37;;;19.70;;
4595;SDS011;2310;49.978;8.742;2022-11-20T04:23:02;27.03;;;19.73;;
4595;SDS011;2310;49.978;8.742;2022-11-20T04:27:03;32.33;;;20.83;;
4595;SDS011;2310;49.978;8.742;2022-11-20T04:31:09;27.60;;;20.73;;
4595;SDS011;2310;49.978;8.742;2022-11-20T04:35:15;27.50;;;18.20;;
4595;SDS011;2310;49.978;8.742;2022-11-20T04:39:16;29.80;;;19.53;;
4595;SDS011;2310;49.978;8.742;2022-11-20T04:43:17;24.70;;;17.90;;
4595;SDS011;2310;49.978;8.742;2022-11-20T04:47:19;29.20;;;18.60;;
4595;SDS011;2310;49.978;8.742;2022-11-20T04:51:20;25.40;;;19.90;;
4595;SDS011;2310;49.978;8.742;2022-11-20T04:55:21;28.10;;;18.73;;
4595;SDS011;2310;49.978;8.742;2022-11-20T04:59:22;27.23;;;18.90;;
4595;SDS011;2310;49.978;8.742;2022-11-20T05:03:24;27.67;;;19.37;;
4595;SDS011;2310;49.978;8.742;2022-11-20T05:07:25;26.33;;;19.40;;
4595;SDS011;2310;49.978;8.742;2022-11-20T05:11:26;28.00;;;20.60;;
4595;SDS011;2310;49.978;8.742;2022-11-20T05:15:29;26.40;;;17.97;;
4595;SDS011;2310;49.978;8.742;2022-11-20T05:19:30;23.50;;;17.17;;
4595;SDS011;2310;49.978;8.742;2022-11-20T05:23:32;29.00;;;18.97;;
4595;SDS011;2310;49.978;8.742;2022-11-20T05:27:34;25.00;;;18.77;;
4595;SDS011;2310;49.978;8.742;2022-11-20T05:31:35;28.37;;;19.63;;
4595;SDS011;2310;49.978;8.742;2022-11-20T05:35:38;29.67;;;18.63;;
4595;SDS011;2310;49.978;8.742;2022-11-20T05:39:39;26.27;;;18.87;;
4595;SDS011;2310;49.978;8.742;2022-11-20T05:43:41;26.27;;;18.43;;
4595;SDS011;2310;49.978;8.742;2022-11-20T05:51:10;28.57;;;17.97;;
4595;SDS011;2310;49.978;8.742;2022-11-20T05:55:13;26.13;;;17.40;;
4595;SDS011;2310;49.978;8.742;2022-11-20T05:59:14;26.97;;;18.70;;
4595;SDS011;2310;49.978;8.742;2022-11-20T06:03:15;29.60;;;18.63;;
4595;SDS011;2310;49.978;8.742;2022-11-20T06:07:16;26.67;;;18.70;;
4595;SDS011;2310;49.978;8.742;2022-11-20T06:11:17;28.07;;;18.20;;
4595;SDS011;2310;49.978;8.742;2022-11-20T06:15:19;31.47;;;19.80;;
4595;SDS011;2310;49.978;8.742;2022-11-20T06:19:20;29.87;;;18.93;;
4595;SDS011;2310;49.978;8.742;2022-11-20T06:23:22;26.30;;;18.50;;
4595;SDS011;2310;49.978;8.742;2022-11-20T06:27:23;31.63;;;20.10;;
4595;SDS011;2310;49.978;8.742;2022-11-20T06:31:24;27.63;;;20.87;;
4595;SDS011;2310;49.978;8.742;2022-11-20T06:35:26;35.07;;;21.70;;
4595;SDS011;2310;49.978;8.742;2022-11-20T06:39:28;36.47;;;23.07;;
4595;SDS011;2310;49.978;8.742;2022-11-20T06:43:29;33.63;;;21.63;;
4595;SDS011;2310;49.978;8.742;2022-11-20T06:47:30;29.63;;;19.50;;
4595;SDS011;2310;49.978;8.742;2022-11-20T06:51:31;29.87;;;20.67;;
4595;SDS011;2310;49.978;8.742;2022-11-20T06:55:32;29.00;;;18.20;;
4595;SDS011;2310;49.978;8.742;2022-11-20T06:59:34;40.73;;;25.73;;
4595;SDS011;2310;49.978;8.742;2022-11-20T07:03:35;31.73;;;22.30;;
4595;SDS011;2310;49.978;8.742;2022-11-20T07:07:36;33.30;;;25.43;;
4595;SDS011;2310;49.978;8.742;2022-11-20T07:11:38;39.60;;;25.90;;
4595;SDS011;2310;49.978;8.742;2022-11-20T07:15:39;39.93;;;27.63;;
4595;SDS011;2310;49.978;8.742;2022-11-20T07:19:41;42.37;;;25.30;;
4595;SDS011;2310;49.978;8.742;2022-11-20T07:23:43;39.20;;;23.47;;
4595;SDS011;2310;49.978;8.742;2022-11-20T07:27:44;34.27;;;23.30;;
4595;SDS011;2310;49.978;8.742;2022-11-20T07:31:46;37.90;;;24.40;;
4595;SDS011;2310;49.978;8.742;2022-11-20T07:35:47;36.10;;;23.97;;
4595;SDS011;2310;49.978;8.742;2022-11-20T07:39:48;34.20;;;23.83;;
4595;SDS011;2310;49.978;8.742;2022-11-20T07:43:49;36.27;;;24.20;;
4595;SDS011;2310;49.978;8.742;2022-11-20T07:47:50;37.30;;;25.23;;
4595;SDS011;2310;49.978;8.742;2022-11-20T07:51:52;34.00;;;25.30;;
4595;SDS011;2310;49.978;8.742;2022-11-20T07:56:01;36.90;;;24.77;;
4595;SDS011;2310;49.978;8.742;2022-11-20T08:00:04;31.73;;;21.47;;
4595;SDS011;2310;49.978;8.742;2022-11-20T08:04:09;30.67;;;21.50;;
4595;SDS011;2310;49.978;8.742;2022-11-20T08:08:10;34.30;;;24.53;;
4595;SDS011;2310;49.978;8.742;2022-11-20T08:12:18;31.50;;;21.80;;
4595;SDS011;2310;49.978;8.742;2022-11-20T08:16:41;31.87;;;22.30;;
4595;SDS011;2310;49.978;8.742;2022-11-20T08:20:46;34.60;;;20.73;;
4595;SDS011;2310;49.978;8.742;2022-11-20T08:24:47;30.83;;;21.93;;
4595;SDS011;2310;49.978;8.742;2022-11-20T08:28:49;36.93;;;22.63;;
4595;SDS011;2310;49.978;8.742;2022-11-20T08:33:00;32.60;;;22.27;;
4595;SDS011;2310;49.978;8.742;2022-11-20T08:37:04;27.70;;;19.33;;
4595;SDS011;2310;49.978;8.742;2022-11-20T08:41:05;22.13;;;16.97;;
4595;SDS011;2310;49.978;8.742;2022-11-20T08:45:08;22.17;;;15.90;;
4595;SDS011;2310;49.978;8.742;2022-11-20T08:49:10;20.13;;;15.37;;
4595;SDS011;2310;49.978;8.742;2022-11-20T08:53:13;18.37;;;14.93;;
4595;SDS011;2310;49.978;8.742;2022-11-20T08:57:14;21.87;;;15.03;;
4595;SDS011;2310;49.978;8.742;2022-11-20T09:01:15;19.87;;;15.10;;
4595;SDS011;2310;49.978;8.742;2022-11-20T09:05:16;17.93;;;13.97;;
4595;SDS011;2310;49.978;8.742;2022-11-20T09:09:18;19.83;;;16.17;;
4595;SDS011;2310;49.978;8.742;2022-11-20T09:13:20;15.50;;;12.43;;
4595;SDS011;2310;49.978;8.742;2022-11-20T09:17:23;27.80;;;18.93;;
4595;SDS011;2310;49.978;8.742;2022-11-20T09:21:24;19.63;;;15.60;;
4595;SDS011;2310;49.978;8.742;2022-11-20T09:25:25;16.47;;;13.43;;
4595;SDS011;2310;49.978;8.742;2022-11-20T09:29:27;19.10;;;14.87;;
4595;SDS011;2310;49.978;8.742;2022-11-20T09:33:28;18.33;;;14.00;;
4595;SDS011;2310;49.978;8.742;2022-11-20T09:37:29;18.67;;;15.03;;
4595;SDS011;2310;49.978;8.742;2022-11-20T09:54:27;17.80;;;13.83;;
4595;SDS011;2310;49.978;8.742;2022-11-20T09:58:40;22.23;;;16.23;;
4595;SDS011;2310;49.978;8.742;2022-11-20T10:02:46;21.17;;;16.00;;
4595;SDS011;2310;49.978;8.742;2022-11-20T10:07:06;25.33;;;18.37;;
4595;SDS011;2310;49.978;8.742;2022-11-20T10:15:57;20.90;;;16.97;;
4595;SDS011;2310;49.978;8.742;2022-11-20T10:20:09;22.07;;;17.57;;
4595;SDS011;2310;49.978;8.742;2022-11-20T10:32:55;20.23;;;15.57;;
4595;SDS011;2310;49.978;8.742;2022-11-20T10:37:00;21.27;;;16.33;;
4595;SDS011;2310;49.978;8.742;2022-11-20T10:41:04;19.13;;;15.73;;
4595;SDS011;2310;49.978;8.742;2022-11-20T10:49:30;18.83;;;16.20;;
4595;SDS011;2310;49.978;8.742;2022-11-20T10:53:40;23.33;;;16.20;;
4595;SDS011;2310;49.978;8.742;2022-11-20T10:58:00;20.40;;;16.10;;
4595;SDS011;2310;49.978;8.742;2022-11-20T11:02:15;21.60;;;17.23;;
4595;SDS011;2310;49.978;8.742;2022-11-20T11:14:54;24.10;;;21.47;;
4595;SDS011;2310;49.978;8.742;2022-11-20T11:19:04;22.70;;;19.07;;
4595;SDS011;2310;49.978;8.742;2022-11-20T11:23:10;23.50;;;16.77;;
4595;SDS011;2310;49.978;8.742;2022-11-20T11:27:13;26.90;;;20.47;;
4595;SDS011;2310;49.978;8.742;2022-11-20T11:31:22;20.70;;;16.97;;
4595;SDS011;2310;49.978;8.742;2022-11-20T11:35:25;19.60;;;16.57;;
4595;SDS011;2310;49.978;8.742;2022-11-20T11:39:29;18.93;;;15.77;;
4595;SDS011;2310;49.978;8.742;2022-11-20T11:43:35;18.77;;;15.47;;
4595;SDS011;2310;49.978;8.742;2022-11-20T11:47:57;20.43;;;16.07;;
4595;SDS011;2310;49.978;8.742;2022-11-20T11:52:03;21.93;;;19.53;;
4595;SDS011;2310;49.978;8.742;2022-11-20T11:56:09;28.77;;;25.67;;
4595;SDS011;2310;49.978;8.742;2022-11-20T12:00:13;25.77;;;20.33;;
4595;SDS011;2310;49.978;8.742;2022-11-20T12:04:20;22.63;;;18.23;;
4595;SDS011;2310;49.978;8.742;2022-11-20T12:08:32;26.87;;;20.00;;
4595;SDS011;2310;49.978;8.742;2022-11-20T12:12:53;23.53;;;19.40;;
4595;SDS011;2310;49.978;8.742;2022-11-20T12:16:56;19.43;;;16.30;;
4595;SDS011;2310;49.978;8.742;2022-11-20T12:33:44;21.23;;;15.83;;
4595;SDS011;2310;49.978;8.742;2022-11-20T12:42:37;20.00;;;16.23;;
4595;SDS011;2310;49.978;8.742;2022-11-20T12:47:08;20.10;;;16.30;;
4595;SDS011;2310;49.978;8.742;2022-11-20T12:55:55;17.67;;;15.57;;
4595;SDS011;2310;49.978;8.742;2022-11-20T13:00:07;22.97;;;17.77;;
4595;SDS011;2310;49.978;8.742;2022-11-20T13:08:23;17.27;;;14.10;;
4595;SDS011;2310;49.978;8.742;2022-11-20T13:12:34;19.00;;;15.00;;
4595;SDS011;2310;49.978;8.742;2022-11-20T13:16:49;18.67;;;16.07;;
4595;SDS011;2310;49.978;8.742;2022-11-20T13:20:54;20.57;;;16.27;;
4595;SDS011;2310;49.978;8.742;2022-11-20T13:24:55;19.30;;;15.73;;
4595;SDS011;2310;49.978;8.742;2022-11-20T13:29:02;16.80;;;14.80;;
4595;SDS011;2310;49.978;8.742;2022-11-20T13:37:34;21.13;;;17.13;;
4595;SDS011;2310;49.978;8.742;2022-11-20T13:41:37;20.90;;;16.27;;
4595;SDS011;2310;49.978;8.742;2022-11-20T13:45:40;19.97;;;15.87;;
4595;SDS011;2310;49.978;8.742;2022-11-20T13:49:41;20.00;;;15.57;;
4595;SDS011;2310;49.978;8.742;2022-11-20T14:02:16;18.00;;;14.10;;
4595;SDS011;2310;49.978;8.742;2022-11-20T14:06:29;20.80;;;15.87;;
4595;SDS011;2310;49.978;8.742;2022-11-20T14:10:25;17.87;;;15.13;;
4595;SDS011;2310;49.978;8.742;2022-11-20T14:14:30;20.90;;;15.23;;
4595;SDS011;2310;49.978;8.742;2022-11-20T14:18:33;22.07;;;16.80;;
4595;SDS011;2310;49.978;8.742;2022-11-20T14:22:35;17.13;;;13.63;;
4595;SDS011;2310;49.978;8.742;2022-11-20T14:26:36;16.93;;;13.37;;
4595;SDS011;2310;49.978;8.742;2022-11-20T14:30:44;17.70;;;13.60;;
4595;SDS011;2310;49.978;8.742;2022-11-20T14:34:48;18.07;;;13.57;;
4595;SDS011;2310;49.978;8.742;2022-11-20T14:38:51;17.93;;;14.23;;
4595;SDS011;2310;49.978;8.742;2022-11-20T14:42:54;18.23;;;15.47;;
4595;SDS011;2310;49.978;8.742;2022-11-20T14:46:55;15.77;;;13.73;;
4595;SDS011;2310;49.978;8.742;2022-11-20T14:50:58;15.13;;;13.37;;
4595;SDS011;2310;49.978;8.742;2022-11-20T14:54:59;15.83;;;13.27;;
4595;SDS011;2310;49.978;8.742;2022-11-20T14:59:00;15.73;;;12.73;;
4595;SDS011;2310;49.978;8.742;2022-11-20T15:03:02;16.03;;;13.57;;
4595;SDS011;2310;49.978;8.742;2022-11-20T15:07:03;17.47;;;11.93;;
4595;SDS011;2310;49.978;8.742;2022-11-20T15:15:10;22.57;;;15.50;;
4595;SDS011;2310;49.978;8.742;2022-11-20T15:19:17;17.17;;;13.77;;
4595;SDS011;2310;49.978;8.742;2022-11-20T15:23:21;22.13;;;15.20;;
4595;SDS011;2310;49.978;8.742;2022-11-20T15:27:23;20.87;;;14.40;;
4595;SDS011;2310;49.978;8.742;2022-11-20T15:31:27;19.17;;;15.60;;
4595;SDS011;2310;49.978;8.742;2022-11-20T15:35:30;24.33;;;17.60;;
4595;SDS011;2310;49.978;8.742;2022-11-20T15:39:31;18.47;;;16.60;;
4595;SDS011;2310;49.978;8.742;2022-11-20T15:43:33;13.90;;;12.40;;
4595;SDS011;2310;49.978;8.742;2022-11-20T15:47:34;15.90;;;12.63;;
4595;SDS011;2310;49.978;8.742;2022-11-20T15:51:37;18.37;;;13.00;;
4595;SDS011;2310;49.978;8.742;2022-11-20T15:55:40;16.83;;;12.67;;
4595;SDS011;2310;49.978;8.742;2022-11-20T15:59:42;20.37;;;13.93;;
4595;SDS011;2310;49.978;8.742;2022-11-20T16:03:43;22.77;;;12.83;;
4595;SDS011;2310;49.978;8.742;2022-11-20T16:07:44;14.30;;;11.73;;
4595;SDS011;2310;49.978;8.742;2022-11-20T16:11:45;15.50;;;11.63;;
4595;SDS011;2310;49.978;8.742;2022-11-20T16:15:51;15.70;;;14.07;;
4595;SDS011;2310;49.978;8.742;2022-11-20T16:19:57;19.23;;;17.10;;
4595;SDS011;2310;49.978;8.742;2022-11-20T16:24:03;17.80;;;14.17;;
4595;SDS011;2310;49.978;8.742;2022-11-20T16:28:05;13.83;;;11.70;;
4595;SDS011;2310;49.978;8.742;2022-11-20T16:32:07;15.20;;;11.67;;
4595;SDS011;2310;49.978;8.742;2022-11-20T16:36:09;11.90;;;10.30;;
4595;SDS011;2310;49.978;8.742;2022-11-20T16:40:12;13.20;;;11.70;;
4595;SDS011;2310;49.978;8.742;2022-11-20T16:44:13;46.77;;;32.80;;
4595;SDS011;2310;49.978;8.742;2022-11-20T16:48:15;86.37;;;68.50;;
4595;SDS011;2310;49.978;8.742;2022-11-20T16:52:17;33.63;;;28.70;;
4595;SDS011;2310;49.978;8.742;2022-11-20T16:56:19;21.67;;;19.40;;
4595;SDS011;2310;49.978;8.742;2022-11-20T17:00:21;19.33;;;16.27;;
4595;SDS011;2310;49.978;8.742;2022-11-20T17:04:22;28.03;;;23.43;;
4595;SDS011;2310;49.978;8.742;2022-11-20T17:08:25;18.77;;;15.57;;
4595;SDS011;2310;49.978;8.742;2022-11-20T17:12:29;15.27;;;13.20;;
4595;SDS011;2310;49.978;8.742;2022-11-20T17:16:31;14.70;;;12.90;;
4595;SDS011;2310;49.978;8.742;2022-11-20T17:20:32;16.67;;;14.97;;
4595;SDS011;2310;49.978;8.742;2022-11-20T17:24:33;17.90;;;14.67;;
4595;SDS011;2310;49.978;8.742;2022-11-20T17:28:35;14.70;;;13.20;;
4595;SDS011;2310;49.978;8.742;2022-11-20T17:32:37;12.43;;;10.53;;
4595;SDS011;2310;49.978;8.742;2022-11-20T17:36:39;13.03;;;9.77;;
4595;SDS011;2310;49.978;8.742;2022-11-20T17:40:44;12.50;;;9.40;;
4595;SDS011;2310;49.978;8.742;2022-11-20T17:44:45;17.37;;;12.57;;
4595;SDS011;2310;49.978;8.742;2022-11-20T17:48:47;11.97;;;10.37;;
4595;SDS011;2310;49.978;8.742;2022-11-20T17:52:49;8.13;;;7.20;;
4595;SDS011;2310;49.978;8.742;2022-11-20T17:56:50;9.27;;;7.30;;
4595;SDS011;2310;49.978;8.742;2022-11-20T18:01:10;9.83;;;7.20;;
4595;SDS011;2310;49.978;8.742;2022-11-20T18:05:11;11.03;;;9.43;;
4595;SDS011;2310;49.978;8.742;2022-11-20T18:09:13;7.70;;;5.60;;
4595;SDS011;2310;49.978;8.742;2022-11-20T18:13:14;7.70;;;5.70;;
4595;SDS011;2310;49.978;8.742;2022-11-20T18:17:15;8.00;;;5.50;;
4595;SDS011;2310;49.978;8.742;2022-11-20T18:21:17;6.80;;;4.80;;
4595;SDS011;2310;49.978;8.742;2022-11-20T18:25:18;5.77;;;3.93;;
4595;SDS011;2310;49.978;8.742;2022-11-20T18:29:19;5.27;;;3.60;;
4595;SDS011;2310;49.978;8.742;2022-11-20T18:33:20;5.27;;;4.20;;
4595;SDS011;2310;49.978;8.742;2022-11-20T18:37:23;4.57;;;3.60;;
4595;SDS011;2310;49.978;8.742;2022-11-20T18:41:25;7.23;;;4.27;;
4595;SDS011;2310;49.978;8.742;2022-11-20T18:45:46;6.07;;;3.90;;
4595;SDS011;2310;49.978;8.742;2022-11-20T18:49:48;6.30;;;3.70;;
4595;SDS011;2310;49.978;8.742;2022-11-20T18:53:52;5.30;;;4.80;;
4595;SDS011;2310;49.978;8.742;2022-11-20T18:57:53;5.20;;;4.63;;
4595;SDS011;2310;49.978;8.742;2022-11-20T19:01:55;6.00;;;4.20;;
4595;SDS011;2310;49.978;8.742;2022-11-20T19:05:56;7.23;;;4.40;;
4595;SDS011;2310;49.978;8.742;2022-11-20T19:09:57;8.37;;;5.03;;
4595;SDS011;2310;49.978;8.742;2022-11-20T19:14:00;8.10;;;4.60;;
4595;SDS011;2310;49.978;8.742;2022-11-20T19:18:01;7.07;;;4.57;;
4595;SDS011;2310;49.978;8.742;2022-11-20T19:22:03;7.80;;;5.00;;
4595;SDS011;2310;49.978;8.742;2022-11-20T19:26:04;7.63;;;4.90;;
4595;SDS011;2310;49.978;8.742;2022-11-20T19:30:07;13.00;;;5.90;;
4595;SDS011;2310;49.978;8.742;2022-11-20T19:34:09;12.40;;;5.40;;
4595;SDS011;2310;49.978;8.742;2022-11-20T19:38:11;8.50;;;5.27;;
4595;SDS011;2310;49.978;8.742;2022-11-20T19:42:13;9.00;;;4.93;;
4595;SDS011;2310;49.978;8.742;2022-11-20T19:46:15;6.50;;;4.70;;
4595;SDS011;2310;49.978;8.742;2022-11-20T19:50:17;7.43;;;4.83;;
4595;SDS011;2310;49.978;8.742;2022-11-20T19:54:19;7.30;;;5.50;;
4595;SDS011;2310;49.978;8.742;2022-11-20T19:58:20;10.20;;;7.70;;
4595;SDS011;2310;49.978;8.742;2022-11-20T20:02:21;8.07;;;4.80;;
4595;SDS011;2310;49.978;8.742;2022-11-20T20:06:23;6.90;;;5.17;;
4595;SDS011;2310;49.978;8.742;2022-11-20T20:10:26;9.13;;;4.17;;
4595;SDS011;2310;49.978;8.742;2022-11-20T20:14:27;5.03;;;3.20;;
4595;SDS011;2310;49.978;8.742;2022-11-20T20:18:28;4.93;;;3.50;;
4595;SDS011;2310;49.978;8.742;2022-11-20T20:22:29;6.83;;;3.13;;
4595;SDS011;2310;49.978;8.742;2022-11-20T20:26:31;3.80;;;2.73;;
4595;SDS011;2310;49.978;8.742;2022-11-20T20:30:34;5.03;;;2.60;;
4595;SDS011;2310;49.978;8.742;2022-11-20T20:34:36;5.07;;;3.13;;
4595;SDS011;2310;49.978;8.742;2022-11-20T20:38:38;6.63;;;3.60;;
4595;SDS011;2310;49.978;8.742;2022-11-20T20:42:39;5.60;;;3.40;;
4595;SDS011;2310;49.978;8.742;2022-11-20T20:46:40;4.60;;;3.10;;
4595;SDS011;2310;49.978;8.742;2022-11-20T20:50:41;5.43;;;2.97;;
4595;SDS011;2310;49.978;8.742;2022-11-20T20:54:43;6.47;;;3.10;;
4595;SDS011;2310;49.978;8.742;2022-11-20T20:58:44;6.07;;;3.87;;
4595;SDS011;2310;49.978;8.742;2022-11-20T21:02:45;5.67;;;2.60;;
4595;SDS011;2310;49.978;8.742;2022-11-20T21:06:47;5.07;;;2.87;;
4595;SDS011;2310;49.978;8.742;2022-11-20T21:10:48;4.67;;;2.40;;
4595;SDS011;2310;49.978;8.742;2022-11-20T21:14:49;4.10;;;2.23;;
4595;SDS011;2310;49.978;8.742;2022-11-20T21:18:50;5.07;;;2.63;;
4595;SDS011;2310;49.978;8.742;2022-11-20T21:22:52;5.37;;;2.80;;
4595;SDS011;2310;49.978;8.742;2022-11-20T21:26:53;3.57;;;2.70;;
4595;SDS011;2310;49.978;8.742;2022-11-20T21:31:14;5.40;;;3.43;;
4595;SDS011;2310;49.978;8.742;2022-11-20T21:35:18;4.10;;;2.33;;
4595;SDS011;2310;49.978;8.742;2022-11-20T21:39:19;5.00;;;3.07;;
4595;SDS011;2310;49.978;8.742;2022-11-20T21:43:21;4.83;;;2.60;;
4595;SDS011;2310;49.978;8.742;2022-11-20T21:47:22;3.80;;;2.50;;
4595;SDS011;2310;49.978;8.742;2022-11-20T21:51:25;6.37;;;2.93;;
4595;SDS011;2310;49.978;8.742;2022-11-20T21:55:27;4.10;;;2.93;;
4595;SDS011;2310;49.978;8.742;2022-11-20T21:59:29;4.50;;;3.00;;
4595;SDS011;2310;49.978;8.742;2022-11-20T22:03:30;5.00;;;2.73;;
4595;SDS011;2310;49.978;8.742;2022-11-20T22:07:32;4.27;;;2.90;;
4595;SDS011;2310;49.978;8.742;2022-11-20T22:11:33;5.13;;;2.70;;
4595;SDS011;2310;49.978;8.742;2022-11-20T22:15:35;5.60;;;3.23;;
4595;SDS011;2310;49.978;8.742;2022-11-20T22:19:38;7.07;;;3.10;;
4595;SDS011;2310;49.978;8.742;2022-11-20T22:23:39;4.00;;;2.40;;
4595;SDS011;2310;49.978;8.742;2022-11-20T22:27:41;5.90;;;3.07;;
4595;SDS011;2310;49.978;8.742;2022-11-20T22:31:42;4.10;;;3.13;;
4595;SDS011;2310;49.978;8.742;2022-11-20T22:35:44;5.00;;;3.10;;
4595;SDS011;2310;49.978;8.742;2022-11-20T22:39:45;5.07;;;2.77;;
4595;SDS011;2310;49.978;8.742;2022-11-20T22:43:46;5.07;;;3.10;;
4595;SDS011;2310;49.978;8.742;2022-11-20T22:47:47;5.10;;;3.30;;
4595;SDS011;2310;49.978;8.742;2022-11-20T22:51:48;8.80;;;2.70;;
4595;SDS011;2310;49.978;8.742;2022-11-20T22:55:50;4.20;;;2.50;;
4595;SDS011;2310;49.978;8.742;2022-11-20T22:59:51;4.80;;;2.70;;
4595;SDS011;2310;49.978;8.742;2022-11-20T23:03:56;7.90;;;3.70;;
4595;SDS011;2310;49.978;8.742;2022-11-20T23:07:59;6.23;;;3.67;;
4595;SDS011;2310;49.978;8.742;2022-11-20T23:12:00;4.73;;;3.07;;
4595;SDS011;2310;49.978;8.742;2022-11-20T23:16:06;4.87;;;2.93;;
4595;SDS011;2310;49.978;8.742;2022-11-20T23:20:06;5.20;;;3.50;;
4595;SDS011;2310;49.978;8.742;2022-11-20T23:24:08;6.73;;;3.03;;
4595;SDS011;2310;49.978;8.742;2022-11-20T23:28:10;10.20;;;3.57;;
4595;SDS011;2310;49.978;8.742;2022-11-20T23:32:11;5.43;;;3.33;;
4595;SDS011;2310;49.978;8.742;2022-11-20T23:36:12;5.60;;;3.17;;
4595;SDS011;2310;49.978;8.742;2022-11-20T23:40:13;7.40;;;3.43;;
4595;SDS011;2310;49.978;8.742;2022-11-20T23:44:15;9.10;;;3.53;;
4595;SDS011;2310;49.978;8.742;2022-11-20T23:48:16;5.67;;;3.40;;
4595;SDS011;2310;49.978;8.742;2022-11-20T23:52:18;10.70;;;3.57;;
4595;SDS011;2310;49.978;8.742;2022-11-20T23:56:20;4.90;;;3.00;;
